Time;durP1;ratioP1;P1;durP2;ratioP2;P2;SDS_P1;SDS_P2;PMS_P1;PMS_P2;Temp;Humidity;BMP_temperature;BMP_pressure;BME280_temperature;BME280_humidity;BME280_pressure;Samples;Min_cycle;Max_cycle;Signal;HPM_P1;HPM_P2
2021/06/14 00:00:39;;;;;;;8.97;6.43;;;15.20;99.90;;;;;;5049080;28;20442;-85
2021/06/14 00:03:06;;;;;;;13.87;6.30;;;15.30;99.90;;;;;;5050591;28;20447;-85
2021/06/14 00:05:36;;;;;;;10.83;7.30;;;15.20;99.90;;;;;;5052460;28;20501;-84
2021/06/14 00:08:05;;;;;;;9.60;6.87;;;15.10;99.90;;;;;;5051381;28;20409;-84
2021/06/14 00:10:32;;;;;;;9.53;6.30;;;15.10;99.90;;;;;;5052123;28;20477;-85
2021/06/14 00:13:00;;;;;;;9.00;5.80;;;15.00;99.90;;;;;;5051516;28;20450;-85
2021/06/14 00:15:28;;;;;;;10.70;6.77;;;15.00;99.90;;;;;;5041265;28;20458;-85
2021/06/14 00:17:56;;;;;;;13.23;6.67;;;15.00;99.90;;;;;;5041314;28;20443;-85
2021/06/14 00:20:24;;;;;;;10.70;6.30;;;15.00;99.90;;;;;;5040766;28;20446;-86
2021/06/14 00:22:52;;;;;;;13.50;6.97;;;14.90;99.90;;;;;;5042337;28;20417;-85
2021/06/14 00:25:22;;;;;;;13.60;6.57;;;14.90;99.90;;;;;;5040043;28;20496;-85
2021/06/14 00:27:48;;;;;;;11.47;7.33;;;14.80;99.90;;;;;;5040208;28;20834;-85
2021/06/14 00:30:18;;;;;;;11.37;6.77;;;14.90;99.90;;;;;;5046768;28;20442;-85
2021/06/14 00:32:45;;;;;;;11.83;6.70;;;14.90;99.90;;;;;;5042500;28;20446;-84
2021/06/14 00:35:13;;;;;;;12.30;7.83;;;14.90;99.90;;;;;;5039485;28;20497;-85
2021/06/14 00:37:39;;;;;;;10.10;7.97;;;14.90;99.90;;;;;;5039662;28;20450;-85
2021/06/14 00:40:07;;;;;;;8.20;6.20;;;14.90;99.90;;;;;;5039042;28;20450;-85
2021/06/14 00:42:34;;;;;;;11.87;7.07;;;14.80;99.90;;;;;;5039036;28;20850;-84
2021/06/14 00:45:00;;;;;;;10.10;6.93;;;14.80;99.90;;;;;;5038736;28;20467;-85
2021/06/14 00:47:27;;;;;;;13.33;7.60;;;14.80;99.90;;;;;;5038112;28;20847;-86
2021/06/14 00:49:54;;;;;;;9.27;7.23;;;14.80;99.90;;;;;;5037547;28;20989;-85
2021/06/14 00:52:22;;;;;;;10.40;7.70;;;14.80;99.90;;;;;;5046392;28;20474;-84
2021/06/14 00:54:48;;;;;;;9.10;7.27;;;14.80;99.90;;;;;;5055105;28;20470;-84
2021/06/14 00:57:15;;;;;;;10.30;6.87;;;14.70;99.90;;;;;;5055438;28;20443;-84
2021/06/14 00:59:41;;;;;;;10.43;7.23;;;14.70;99.90;;;;;;5050915;28;20421;-85
2021/06/14 01:02:08;;;;;;;10.17;6.50;;;14.70;99.90;;;;;;5042034;28;20496;-85
2021/06/14 01:04:34;;;;;;;10.30;7.60;;;14.70;99.90;;;;;;5057308;28;20434;-85
2021/06/14 01:07:01;;;;;;;12.07;6.93;;;14.70;99.90;;;;;;5059100;28;20468;-85
2021/06/14 01:09:29;;;;;;;14.47;9.17;;;14.50;99.90;;;;;;5059228;28;20434;-85
2021/06/14 01:12:08;;;;;;;15.40;8.87;;;14.50;99.90;;;;;;5057382;28;20440;-85
2021/06/14 01:14:49;;;;;;;12.43;7.90;;;14.50;99.90;;;;;;5048596;28;20463;-85
2021/06/14 01:17:26;;;;;;;15.43;7.90;;;14.40;99.90;;;;;;5038925;28;20430;-85
2021/06/14 01:20:24;;;;;;;9.93;7.60;;;14.40;99.90;;;;;;5036629;28;20442;-85
2021/06/14 01:23:18;;;;;;;9.73;7.47;;;14.30;99.90;;;;;;5036991;28;20486;-85
2021/06/14 01:25:51;;;;;;;9.77;6.90;;;14.40;99.90;;;;;;5037933;28;20494;-85
2021/06/14 01:28:21;;;;;;;9.07;7.93;;;14.30;99.90;;;;;;5037017;28;20437;-85
2021/06/14 01:30:49;;;;;;;15.00;9.27;;;14.30;99.90;;;;;;5037336;28;20497;-86
2021/06/14 01:33:18;;;;;;;13.43;7.57;;;14.40;99.90;;;;;;5038003;28;20446;-85
2021/06/14 01:35:48;;;;;;;10.07;7.03;;;14.30;99.90;;;;;;5038948;28;20467;-86
2021/06/14 01:38:18;;;;;;;13.03;7.80;;;14.20;99.90;;;;;;5039087;28;20438;-86
2021/06/14 01:40:47;;;;;;;11.50;8.33;;;14.20;99.90;;;;;;5038939;28;20478;-86
2021/06/14 01:43:20;;;;;;;12.20;8.50;;;14.30;99.90;;;;;;5038910;28;20484;-85
2021/06/14 01:45:52;;;;;;;9.53;7.90;;;14.40;99.90;;;;;;5039185;28;20466;-85
2021/06/14 01:48:20;;;;;;;11.43;7.67;;;14.30;99.90;;;;;;5040415;28;20466;-85
2021/06/14 01:50:47;;;;;;;10.90;8.27;;;14.20;99.90;;;;;;5038848;28;20500;-85
2021/06/14 01:53:15;;;;;;;13.10;9.00;;;14.10;99.90;;;;;;5037968;28;20944;-86
2021/06/14 01:55:42;;;;;;;11.00;8.10;;;13.90;99.90;;;;;;5040616;28;20510;-85
2021/06/14 01:58:09;;;;;;;12.63;7.67;;;14.00;99.90;;;;;;5044172;28;20500;-85
2021/06/14 02:00:40;;;;;;;12.10;9.90;;;14.00;99.90;;;;;;5045850;28;20801;-85
2021/06/14 02:03:08;;;;;;;9.03;8.00;;;14.00;99.90;;;;;;5046309;28;20431;-84
2021/06/14 02:05:37;;;;;;;14.07;7.77;;;14.00;99.90;;;;;;5039653;28;20470;-85
2021/06/14 02:08:05;;;;;;;12.50;8.30;;;14.10;99.90;;;;;;5038613;28;20450;-86
2021/06/14 02:10:35;;;;;;;13.97;8.20;;;14.00;99.90;;;;;;5039595;28;20457;-86
2021/06/14 02:13:03;;;;;;;14.50;8.07;;;14.00;99.90;;;;;;5055092;28;20449;-85
2021/06/14 02:15:30;;;;;;;9.43;7.10;;;14.00;99.90;;;;;;5042397;28;20486;-86
2021/06/14 02:18:00;;;;;;;9.93;7.80;;;14.10;99.90;;;;;;5039294;28;20445;-85
2021/06/14 02:20:27;;;;;;;11.30;7.30;;;14.10;99.90;;;;;;5044430;28;20454;-85
2021/06/14 02:22:54;;;;;;;10.20;7.40;;;14.10;99.90;;;;;;5045887;28;20808;-85
2021/06/14 02:25:21;;;;;;;11.23;7.90;;;14.20;99.90;;;;;;5038522;28;20914;-85
2021/06/14 02:27:48;;;;;;;10.30;7.47;;;14.20;99.90;;;;;;5037772;28;20447;-86
2021/06/14 02:30:18;;;;;;;12.60;7.53;;;14.20;99.90;;;;;;5036335;28;20454;-85
2021/06/14 02:32:48;;;;;;;10.43;7.10;;;14.20;99.90;;;;;;5038897;28;20438;-85
2021/06/14 02:35:16;;;;;;;13.33;9.00;;;14.10;99.90;;;;;;5037378;28;20992;-85
2021/06/14 02:37:48;;;;;;;11.37;7.70;;;14.00;99.90;;;;;;5037664;28;20504;-85
2021/06/14 02:40:16;;;;;;;12.10;8.10;;;14.00;99.90;;;;;;5037871;28;20453;-85
2021/06/14 02:42:45;;;;;;;13.77;6.93;;;13.90;99.90;;;;;;5037043;28;20450;-86
2021/06/14 02:45:14;;;;;;;9.60;7.60;;;13.80;99.90;;;;;;5037046;28;20474;-86
2021/06/14 02:47:41;;;;;;;13.37;8.63;;;13.70;99.90;;;;;;5036704;28;20830;-85
2021/06/14 02:50:09;;;;;;;10.63;6.93;;;13.60;99.90;;;;;;5040996;28;20450;-85
2021/06/14 02:52:39;;;;;;;10.00;7.40;;;13.70;99.90;;;;;;5040245;28;20446;-85
2021/06/14 02:55:13;;;;;;;12.47;7.30;;;13.80;99.90;;;;;;5052910;28;20490;-84
2021/06/14 02:57:40;;;;;;;12.00;8.40;;;13.70;99.90;;;;;;5050003;28;20434;-85
2021/06/14 03:00:09;;;;;;;8.43;6.97;;;13.70;99.90;;;;;;5043390;28;20446;-85
2021/06/14 03:02:37;;;;;;;9.80;7.20;;;13.70;99.90;;;;;;5041857;28;20933;-85
2021/06/14 03:05:05;;;;;;;13.57;7.70;;;13.70;99.90;;;;;;5043127;28;20496;-85
2021/06/14 03:07:32;;;;;;;16.47;7.70;;;13.70;99.90;;;;;;5042335;28;20453;-84
2021/06/14 03:10:00;;;;;;;11.23;7.53;;;13.70;99.90;;;;;;5041431;28;20485;-85
2021/06/14 03:12:27;;;;;;;11.27;7.60;;;13.70;99.90;;;;;;5039960;28;20945;-85
2021/06/14 03:14:54;;;;;;;8.90;6.60;;;13.70;99.90;;;;;;5039380;28;20485;-85
2021/06/14 03:17:22;;;;;;;9.10;7.30;;;13.70;99.90;;;;;;5038870;28;20454;-84
2021/06/14 03:19:53;;;;;;;12.13;8.30;;;13.70;99.90;;;;;;5039923;28;20817;-85
2021/06/14 03:22:21;;;;;;;12.25;7.43;;;13.70;99.90;;;;;;5051066;28;20437;-84
2021/06/14 03:24:48;;;;;;;13.70;8.30;;;13.70;99.90;;;;;;5053161;28;20203;-85
2021/06/14 03:27:17;;;;;;;11.97;6.87;;;13.80;99.90;;;;;;5053131;28;20472;-85
2021/06/14 03:29:46;;;;;;;13.60;7.20;;;13.80;99.90;;;;;;5045143;28;20446;-85
2021/06/14 03:32:13;;;;;;;11.00;7.00;;;13.80;99.90;;;;;;5039432;28;20477;-84
2021/06/14 03:34:40;;;;;;;10.18;7.10;;;13.80;99.90;;;;;;5036843;28;20449;-84
2021/06/14 03:37:07;;;;;;;10.43;7.87;;;13.80;99.90;;;;;;5037748;28;20212;-85
2021/06/14 03:39:34;;;;;;;10.50;7.40;;;13.90;99.90;;;;;;5046406;28;20472;-85
2021/06/14 03:42:01;;;;;;;13.07;7.00;;;14.00;99.90;;;;;;5043993;28;20450;-85
2021/06/14 03:44:29;;;;;;;11.67;8.23;;;14.00;99.90;;;;;;5041010;28;20446;-85
2021/06/14 03:46:55;;;;;;;11.10;8.90;;;14.00;99.90;;;;;;5040654;28;20874;-84
2021/06/14 03:49:22;;;;;;;8.57;7.67;;;14.10;99.90;;;;;;5041358;28;20454;-85
2021/06/14 03:51:49;;;;;;;11.23;7.47;;;14.30;99.90;;;;;;5041115;28;20425;-85
2021/06/14 03:54:16;;;;;;;10.57;8.27;;;14.20;99.90;;;;;;5043024;28;20976;-85
2021/06/14 03:56:42;;;;;;;11.37;7.60;;;14.30;99.90;;;;;;5050998;28;20441;-85
2021/06/14 03:59:09;;;;;;;11.30;8.07;;;14.40;99.90;;;;;;5051490;28;20449;-85
2021/06/14 04:01:37;;;;;;;21.97;8.27;;;14.40;99.90;;;;;;5050814;28;20449;-84
2021/06/14 04:04:15;;;;;;;10.07;8.10;;;14.50;99.90;;;;;;5040710;28;20446;-84
2021/06/14 04:06:42;;;;;;;10.60;7.27;;;14.60;99.90;;;;;;5043041;28;20528;-85
2021/06/14 04:09:09;;;;;;;8.90;6.80;;;14.60;99.90;;;;;;5043540;28;20979;-85
2021/06/14 04:11:35;;;;;;;11.07;8.13;;;14.70;99.90;;;;;;5041449;28;20492;-85
2021/06/14 04:14:02;;;;;;;12.80;8.35;;;14.70;99.90;;;;;;5039140;28;20452;-84
2021/06/14 04:16:29;;;;;;;10.10;9.00;;;14.70;99.90;;;;;;5040273;28;20258;-85
2021/06/14 04:18:57;;;;;;;13.67;9.57;;;14.70;99.90;;;;;;5040789;28;20466;-85
2021/06/14 04:21:23;;;;;;;12.60;8.63;;;14.70;99.90;;;;;;5040400;28;20447;-86
2021/06/14 04:23:50;;;;;;;12.50;8.40;;;14.90;99.90;;;;;;5043755;28;20446;-85
2021/06/14 04:26:17;;;;;;;11.10;8.17;;;14.90;99.90;;;;;;5043534;28;20489;-85
2021/06/14 04:28:43;;;;;;;13.00;8.97;;;15.00;99.90;;;;;;5047773;28;20446;-85
2021/06/14 04:31:10;;;;;;;11.23;7.70;;;15.00;99.90;;;;;;5040703;28;20421;-85
2021/06/14 04:33:37;;;;;;;12.37;8.70;;;15.10;99.90;;;;;;5051307;28;20451;-84
2021/06/14 04:36:06;;;;;;;10.20;8.13;;;15.10;99.90;;;;;;5052925;28;20509;-85
2021/06/14 04:38:34;;;;;;;11.27;9.10;;;15.20;99.90;;;;;;5051855;28;20450;-85
2021/06/14 04:41:00;;;;;;;13.87;9.40;;;15.20;99.90;;;;;;5050762;28;20522;-85
2021/06/14 04:43:27;;;;;;;12.77;8.53;;;15.30;99.90;;;;;;5053148;28;20442;-85
2021/06/14 04:45:54;;;;;;;14.37;7.93;;;15.30;99.90;;;;;;5052015;28;20495;-86
2021/06/14 04:48:20;;;;;;;11.70;8.30;;;15.40;99.90;;;;;;5054230;28;20442;-85
2021/06/14 04:50:47;;;;;;;12.33;8.00;;;15.50;99.90;;;;;;5056678;28;20461;-85
2021/06/14 04:53:15;;;;;;;13.17;8.83;;;15.50;99.90;;;;;;5054621;28;20951;-84
2021/06/14 04:55:42;;;;;;;11.73;8.83;;;15.60;99.90;;;;;;5046516;28;20486;-85
2021/06/14 04:58:10;;;;;;;15.20;9.33;;;15.60;99.90;;;;;;5043132;28;20450;-85
2021/06/14 05:00:36;;;;;;;15.87;9.17;;;15.60;99.90;;;;;;5041437;28;20486;-85
2021/06/14 05:03:03;;;;;;;14.50;8.33;;;15.70;99.90;;;;;;5040821;28;20798;-86
2021/06/14 05:05:30;;;;;;;14.37;9.40;;;15.70;99.90;;;;;;5040853;28;20490;-85
2021/06/14 05:07:57;;;;;;;18.10;10.07;;;15.70;99.90;;;;;;5039769;28;20450;-85
2021/06/14 05:10:25;;;;;;;19.50;8.43;;;15.80;99.90;;;;;;5041645;28;20446;-85
2021/06/14 05:12:52;;;;;;;12.47;9.07;;;15.80;99.90;;;;;;5038489;28;20446;-85
2021/06/14 05:15:19;;;;;;;11.40;8.10;;;15.90;99.90;;;;;;5038821;28;20544;-85
2021/06/14 05:17:47;;;;;;;11.67;7.23;;;15.90;99.90;;;;;;5038898;28;20451;-85
2021/06/14 05:20:16;;;;;;;10.67;7.33;;;16.10;99.90;;;;;;5040407;28;20454;-85
2021/06/14 05:22:43;;;;;;;9.70;6.60;;;16.10;99.90;;;;;;5038550;28;21051;-85
2021/06/14 05:25:11;;;;;;;11.13;7.10;;;16.10;99.90;;;;;;5041819;28;20463;-85
2021/06/14 05:27:39;;;;;;;10.73;7.87;;;16.20;99.90;;;;;;5057125;28;20481;-84
2021/06/14 05:30:06;;;;;;;10.80;7.23;;;16.30;99.90;;;;;;5059933;28;20437;-85
2021/06/14 05:32:33;;;;;;;8.83;6.40;;;16.40;99.90;;;;;;5058662;28;20461;-84
2021/06/14 05:35:00;;;;;;;16.60;8.20;;;16.50;99.90;;;;;;5049077;28;20482;-85
2021/06/14 05:37:26;;;;;;;12.03;7.57;;;16.50;99.90;;;;;;5039689;28;20455;-86
2021/06/14 05:39:53;;;;;;;11.23;6.20;;;16.60;99.90;;;;;;5038565;28;20474;-85
2021/06/14 05:42:19;;;;;;;9.50;6.00;;;16.70;99.90;;;;;;5038133;28;20435;-85
2021/06/14 05:44:47;;;;;;;16.10;6.67;;;16.70;99.90;;;;;;5038692;28;20450;-85
2021/06/14 05:47:14;;;;;;;8.33;5.23;;;16.70;99.90;;;;;;5037948;28;20905;-85
2021/06/14 05:49:41;;;;;;;13.77;7.10;;;16.80;99.90;;;;;;5037824;28;20450;-85
2021/06/14 05:52:08;;;;;;;11.60;6.60;;;16.90;99.90;;;;;;5037777;28;20512;-86
2021/06/14 05:54:34;;;;;;;26.77;24.30;;;17.00;99.90;;;;;;5039378;28;20818;-86
2021/06/14 05:57:03;;;;;;;12.13;5.43;;;16.90;99.90;;;;;;5044167;28;20903;-86
2021/06/14 05:59:30;;;;;;;8.10;5.10;;;17.00;99.90;;;;;;5039963;28;20454;-90
2021/06/14 06:01:58;;;;;;;15.07;6.60;;;17.00;99.90;;;;;;5044647;28;20450;-90
2021/06/14 06:04:24;;;;;;;13.03;6.27;;;17.10;99.90;;;;;;5041112;28;20795;-89
2021/06/14 06:06:51;;;;;;;9.23;5.60;;;17.10;99.90;;;;;;5044073;28;20470;-90
2021/06/14 06:09:18;;;;;;;10.23;6.53;;;17.20;99.90;;;;;;5052099;28;20492;-89
2021/06/14 06:11:45;;;;;;;7.60;5.43;;;17.20;99.90;;;;;;5051043;28;20787;-89
2021/06/14 06:14:11;;;;;;;10.53;6.10;;;17.30;99.90;;;;;;5043455;28;20482;-90
2021/06/14 06:16:38;;;;;;;10.90;5.17;;;17.40;99.90;;;;;;5041823;28;20486;-89
2021/06/14 06:19:09;;;;;;;9.70;5.70;;;17.50;99.90;;;;;;5044280;28;20446;-89
2021/06/14 06:21:35;;;;;;;8.33;5.70;;;17.60;99.90;;;;;;5044720;28;20822;-90
2021/06/14 06:24:02;;;;;;;7.37;5.70;;;17.50;99.90;;;;;;5043751;28;20467;-89
2021/06/14 06:26:29;;;;;;;6.67;4.50;;;17.60;99.90;;;;;;5043385;28;20473;-89
2021/06/14 06:28:56;;;;;;;9.50;5.13;;;17.60;99.90;;;;;;5041662;28;20454;-90
2021/06/14 06:31:25;;;;;;;9.83;4.63;;;17.70;99.90;;;;;;5041511;28;20525;-91
2021/06/14 06:33:52;;;;;;;12.17;6.80;;;17.70;99.90;;;;;;5040302;28;20501;-89
2021/06/14 06:36:20;;;;;;;10.13;5.00;;;17.70;99.90;;;;;;5040387;28;20493;-89
2021/06/14 06:38:46;;;;;;;12.30;6.07;;;17.80;99.90;;;;;;5040766;28;20496;-90
2021/06/14 06:41:13;;;;;;;9.20;6.10;;;17.80;99.90;;;;;;5038885;28;20471;-89
2021/06/14 06:43:40;;;;;;;8.07;5.20;;;17.80;99.90;;;;;;5038981;28;20494;-88
2021/06/14 06:46:06;;;;;;;9.60;4.90;;;17.80;99.90;;;;;;5039133;28;20459;-88
2021/06/14 06:48:34;;;;;;;7.73;5.07;;;17.80;99.90;;;;;;5037406;28;20463;-88
2021/06/14 06:51:01;;;;;;;11.57;5.07;;;17.90;99.90;;;;;;5037876;28;20974;-89
2021/06/14 06:53:30;;;;;;;9.87;5.70;;;18.00;99.90;;;;;;5038905;28;20436;-89
2021/06/14 06:55:57;;;;;;;7.33;5.20;;;18.00;99.90;;;;;;5043447;28;20518;-86
2021/06/14 06:58:23;;;;;;;9.23;5.37;;;18.00;99.90;;;;;;5051181;28;20489;-90
2021/06/14 07:00:51;;;;;;;8.53;6.00;;;18.10;99.90;;;;;;5054055;28;20444;-88
2021/06/14 07:03:18;;;;;;;7.03;5.67;;;18.00;99.90;;;;;;5058694;28;20462;-88
2021/06/14 07:05:46;;;;;;;15.00;6.23;;;18.10;99.90;;;;;;5056069;28;20486;-89
2021/06/14 07:08:13;;;;;;;9.33;6.20;;;18.20;99.90;;;;;;5056874;28;20443;-88
2021/06/14 07:10:42;;;;;;;9.73;5.70;;;18.30;99.90;;;;;;5050330;28;20472;-89
2021/06/14 07:13:09;;;;;;;13.13;6.43;;;18.30;99.90;;;;;;5042119;28;20514;-87
2021/06/14 07:15:37;;;;;;;8.17;5.90;;;18.40;99.90;;;;;;5042681;28;20541;-88
2021/06/14 07:18:04;;;;;;;13.13;5.03;;;18.30;99.90;;;;;;5043368;28;20485;-89
2021/06/14 07:20:31;;;;;;;9.93;4.93;;;18.30;99.90;;;;;;5042755;28;20813;-87
2021/06/14 07:23:01;;;;;;;8.23;4.13;;;18.40;99.90;;;;;;5043082;28;20933;-89
2021/06/14 07:25:27;;;;;;;11.43;6.00;;;18.50;99.90;;;;;;5041685;28;20839;-88
2021/06/14 07:27:55;;;;;;;6.43;4.93;;;18.60;99.90;;;;;;5040509;28;20456;-88
2021/06/14 07:30:23;;;;;;;7.73;4.83;;;18.60;99.90;;;;;;5040126;28;20452;-88
2021/06/14 07:32:50;;;;;;;5.60;5.00;;;18.70;99.90;;;;;;5040454;28;20464;-90
2021/06/14 07:35:16;;;;;;;5.40;4.77;;;18.80;99.90;;;;;;5040445;28;20476;-88
2021/06/14 07:37:43;;;;;;;8.00;5.30;;;18.80;99.90;;;;;;5041194;28;20499;-89
2021/06/14 07:40:11;;;;;;;6.87;5.77;;;18.90;99.90;;;;;;5041918;28;20448;-89
2021/06/14 07:42:38;;;;;;;8.37;5.53;;;18.90;99.90;;;;;;5041573;28;20476;-88
2021/06/14 07:45:07;;;;;;;42.97;26.97;;;19.00;99.90;;;;;;5041605;28;20532;-86
2021/06/14 07:47:34;;;;;;;11.00;7.97;;;18.90;99.90;;;;;;5041022;28;20475;-88
2021/06/14 07:50:00;;;;;;;12.30;5.60;;;18.90;99.90;;;;;;5039846;28;20863;-88
2021/06/14 07:52:27;;;;;;;10.40;6.30;;;18.90;99.90;;;;;;5040240;28;20475;-88
2021/06/14 07:54:54;;;;;;;9.93;6.13;;;19.00;99.90;;;;;;5052135;28;20445;-89
2021/06/14 07:57:20;;;;;;;7.13;4.83;;;19.10;99.90;;;;;;5057985;28;20485;-88
2021/06/14 07:59:47;;;;;;;5.00;4.27;;;19.30;99.90;;;;;;5058837;28;20466;-88
2021/06/14 08:02:15;;;;;;;5.20;4.10;;;19.20;99.90;;;;;;5056055;28;20453;-88
2021/06/14 08:04:42;;;;;;;7.43;4.87;;;19.30;99.90;;;;;;5042342;28;20462;-88
2021/06/14 08:07:09;;;;;;;6.90;5.50;;;19.50;99.90;;;;;;5041706;28;21029;-89
2021/06/14 08:09:35;;;;;;;10.73;5.40;;;19.30;99.90;;;;;;5041336;28;20477;-88
2021/06/14 08:12:03;;;;;;;12.80;5.57;;;19.30;99.90;;;;;;5042759;28;20454;-86
2021/06/14 08:14:34;;;;;;;4.93;4.37;;;19.50;99.90;;;;;;5042002;28;20509;-89
2021/06/14 08:17:03;;;;;;;8.23;5.20;;;19.50;99.90;;;;;;5042644;28;20497;-90
2021/06/14 08:19:36;;;;;;;5.30;4.23;;;19.60;99.90;;;;;;5041860;28;21011;-91
2021/06/14 08:22:21;;;;;;;7.90;4.67;;;19.70;99.90;;;;;;5040634;28;20440;-88
2021/06/14 08:25:05;;;;;;;4.90;3.70;;;19.70;99.90;;;;;;5041019;28;20844;-87
2021/06/14 08:27:34;;;;;;;8.00;4.50;;;19.70;99.90;;;;;;5041645;28;20438;-89
2021/06/14 08:30:02;;;;;;;5.80;3.77;;;19.60;99.90;;;;;;5041091;28;20457;-88
2021/06/14 08:32:28;;;;;;;9.60;4.90;;;19.60;99.90;;;;;;5040798;28;20443;-87
2021/06/14 08:34:56;;;;;;;7.67;5.50;;;19.70;99.90;;;;;;5041718;28;20543;-89
2021/06/14 08:37:23;;;;;;;5.70;3.80;;;19.80;99.90;;;;;;5041147;28;20507;-88
2021/06/14 08:39:50;;;;;;;8.63;4.20;;;20.00;99.90;;;;;;5040144;28;20472;-87
2021/06/14 08:42:16;;;;;;;10.67;5.60;;;20.10;99.90;;;;;;5039701;28;20507;-88
2021/06/14 08:44:43;;;;;;;9.63;4.70;;;20.20;99.90;;;;;;5040452;28;20484;-87
2021/06/14 08:47:12;;;;;;;5.47;4.97;;;20.20;99.90;;;;;;5040915;28;20449;-87
2021/06/14 08:49:39;;;;;;;8.40;4.03;;;20.20;99.90;;;;;;5041949;28;20453;-90
2021/06/14 08:52:08;;;;;;;12.30;7.30;;;20.10;99.90;;;;;;5046052;28;20453;-86
2021/06/14 08:54:37;;;;;;;7.03;4.60;;;20.10;99.90;;;;;;5043715;28;20990;-89
2021/06/14 08:57:04;;;;;;;9.27;4.50;;;20.20;99.90;;;;;;5042199;28;20482;-87
2021/06/14 08:59:31;;;;;;;7.93;4.00;;;20.20;99.90;;;;;;5043536;28;20452;-88
2021/06/14 09:01:58;;;;;;;10.30;4.77;;;20.10;99.90;;;;;;5044247;28;20449;-88
2021/06/14 09:04:25;;;;;;;8.50;5.50;;;20.00;99.90;;;;;;5040607;28;20866;-88
2021/06/14 09:06:52;;;;;;;9.73;6.77;;;20.00;99.90;;;;;;5042700;28;20511;-90
2021/06/14 09:09:20;;;;;;;9.10;4.53;;;20.20;99.90;;;;;;5044253;28;20454;-90
2021/06/14 09:11:52;;;;;;;7.30;4.47;;;20.20;99.90;;;;;;5041786;28;20462;-91
2021/06/14 09:14:22;;;;;;;9.60;5.90;;;20.40;99.90;;;;;;5045641;28;20508;-90
2021/06/14 09:16:50;;;;;;;6.53;4.37;;;20.40;99.90;;;;;;5045589;28;20568;-90
2021/06/14 09:19:25;;;;;;;7.30;4.60;;;20.50;99.90;;;;;;5048169;28;20451;-89
2021/06/14 09:21:56;;;;;;;9.43;5.00;;;20.50;99.90;;;;;;5059193;28;20461;-90
2021/06/14 09:24:24;;;;;;;8.90;4.73;;;20.80;99.90;;;;;;5059634;28;20472;-89
2021/06/14 09:26:52;;;;;;;7.13;5.07;;;20.90;99.90;;;;;;5051690;28;20462;-90
2021/06/14 09:29:25;;;;;;;6.97;4.60;;;20.90;99.90;;;;;;5050355;28;20474;-91
2021/06/14 09:31:53;;;;;;;6.00;4.93;;;21.00;99.90;;;;;;5049055;28;20431;-90
2021/06/14 09:34:31;;;;;;;5.83;4.50;;;20.70;99.90;;;;;;5048352;28;20454;-90
2021/06/14 09:37:01;;;;;;;9.70;4.60;;;20.70;99.90;;;;;;5044794;28;20508;-89
2021/06/14 09:39:36;;;;;;;6.93;4.07;;;20.80;99.90;;;;;;5044974;28;20431;-89
2021/06/14 09:42:16;;;;;;;4.93;3.77;;;20.90;99.90;;;;;;5045453;28;20469;-90
2021/06/14 09:44:43;;;;;;;4.70;4.20;;;21.00;99.90;;;;;;5042342;28;20431;-88
2021/06/14 09:47:11;;;;;;;9.10;5.20;;;21.10;99.90;;;;;;5042281;28;20443;-89
2021/06/14 09:49:39;;;;;;;4.97;4.10;;;21.10;99.90;;;;;;5042928;28;20451;-85
2021/06/14 09:52:13;;;;;;;8.00;4.50;;;21.20;99.90;;;;;;5039639;28;20455;-85
2021/06/14 09:54:40;;;;;;;7.87;5.10;;;21.30;99.90;;;;;;5039562;28;20435;-85
2021/06/14 09:57:08;;;;;;;11.13;5.83;;;21.30;99.90;;;;;;5040415;28;20510;-85
2021/06/14 09:59:40;;;;;;;8.07;4.97;;;21.30;99.90;;;;;;5041384;28;20456;-85
2021/06/14 10:02:10;;;;;;;9.10;4.03;;;21.30;99.90;;;;;;5040941;28;20439;-85
2021/06/14 10:04:37;;;;;;;10.80;8.07;;;21.30;99.90;;;;;;5041225;28;20427;-85
2021/06/14 10:07:11;;;;;;;5.43;4.40;;;21.40;99.90;;;;;;5040639;28;20956;-86
2021/06/14 10:09:43;;;;;;;6.00;3.60;;;21.50;99.90;;;;;;5043369;28;20474;-85
2021/06/14 10:12:22;;;;;;;6.93;4.73;;;21.50;99.90;;;;;;5055519;28;20514;-85
2021/06/14 10:14:54;;;;;;;11.60;4.00;;;21.50;99.90;;;;;;5055510;28;20465;-85
2021/06/14 10:17:32;;;;;;;7.93;4.13;;;21.40;99.90;;;;;;5057048;28;20471;-85
2021/06/14 10:20:13;;;;;;;4.47;3.90;;;21.60;99.90;;;;;;5050832;28;20435;-86
2021/06/14 10:22:41;;;;;;;7.30;4.03;;;21.50;99.90;;;;;;5041645;28;20433;-84
2021/06/14 10:25:11;;;;;;;6.70;3.60;;;21.70;99.90;;;;;;5041445;28;20477;-85
2021/06/14 10:27:38;;;;;;;7.37;4.63;;;21.70;99.90;;;;;;5043058;28;20469;-86
2021/06/14 10:30:08;;;;;;;9.63;4.70;;;21.80;99.90;;;;;;5047621;28;20454;-84
2021/06/14 10:32:37;;;;;;;6.10;3.90;;;22.00;99.90;;;;;;5058082;28;20438;-85
2021/06/14 10:35:06;;;;;;;4.80;3.97;;;22.00;99.90;;;;;;5058025;28;20481;-84
2021/06/14 10:37:35;;;;;;;6.80;3.57;;;22.10;99.90;;;;;;5044588;28;20478;-84
2021/06/14 10:40:02;;;;;;;6.07;4.57;;;22.20;99.90;;;;;;5041355;28;20446;-84
2021/06/14 10:42:31;;;;;;;5.83;4.33;;;22.20;99.90;;;;;;5040061;28;20505;-84
2021/06/14 10:44:58;;;;;;;5.20;4.63;;;22.20;99.90;;;;;;5038948;28;20957;-85
2021/06/14 10:47:25;;;;;;;5.37;3.93;;;22.40;99.90;;;;;;5038012;28;20446;-86
2021/06/14 10:49:56;;;;;;;8.80;4.43;;;22.10;99.90;;;;;;5038828;28;20512;-85
2021/06/14 10:52:23;;;;;;;6.03;3.73;;;22.20;99.90;;;;;;5039141;28;20427;-86
2021/06/14 10:54:50;;;;;;;5.43;3.30;;;22.30;99.90;;;;;;5038428;28;20469;-86
2021/06/14 10:57:16;;;;;;;5.53;3.90;;;22.30;99.90;;;;;;5039386;28;20506;-85
2021/06/14 10:59:46;;;;;;;7.83;5.47;;;22.40;99.90;;;;;;5038836;28;20447;-84
2021/06/14 11:02:14;;;;;;;5.97;4.77;;;22.60;99.90;;;;;;5040021;28;20443;-86
2021/06/14 11:04:42;;;;;;;6.17;4.13;;;22.60;99.90;;;;;;5040818;28;20459;-85
2021/06/14 11:07:09;;;;;;;6.27;4.70;;;22.70;99.90;;;;;;5040254;28;20463;-86
2021/06/14 11:09:40;;;;;;;5.50;4.90;;;22.80;99.90;;;;;;5039052;28;20434;-85
2021/06/14 11:12:09;;;;;;;5.63;3.43;;;22.80;99.90;;;;;;5040619;28;20485;-86
2021/06/14 11:14:39;;;;;;;6.13;3.30;;;22.90;99.90;;;;;;5039127;28;20451;-86
2021/06/14 11:17:19;;;;;;;4.83;3.47;;;22.90;99.90;;;;;;5039493;28;20844;-85
2021/06/14 11:19:48;;;;;;;7.73;3.73;;;22.80;99.90;;;;;;5039124;28;20857;-85
2021/06/14 11:22:15;;;;;;;3.17;2.87;;;23.00;99.90;;;;;;5038653;28;20451;-84
2021/06/14 11:24:43;;;;;;;10.00;3.33;;;23.00;99.90;;;;;;5042197;28;20446;-84
2021/06/14 11:27:10;;;;;;;3.67;3.37;;;23.20;99.90;;;;;;5038962;28;20513;-86
2021/06/14 11:29:45;;;;;;;5.20;2.93;;;23.10;99.90;;;;;;5038726;28;20450;-84
2021/06/14 11:32:17;;;;;;;4.07;3.30;;;;;;;;;;5040003;28;20450;-86
2021/06/14 11:34:47;;;;;;;4.13;3.73;;;23.00;99.90;;;;;;5039528;28;20435;-86
2021/06/14 11:37:14;;;;;;;5.83;3.50;;;22.90;99.90;;;;;;5040028;28;20467;-85
2021/06/14 11:39:41;;;;;;;3.90;3.47;;;22.90;99.90;;;;;;5039745;28;20453;-86
2021/06/14 11:42:11;;;;;;;6.07;3.77;;;23.10;99.90;;;;;;5040212;28;20947;-85
2021/06/14 11:44:48;;;;;;;5.43;3.67;;;22.80;99.90;;;;;;5039473;28;20447;-85
2021/06/14 11:47:17;;;;;;;4.90;3.07;;;22.90;99.90;;;;;;5040111;28;20430;-85
2021/06/14 11:49:47;;;;;;;8.63;5.77;;;23.00;99.90;;;;;;5042775;28;20503;-86
2021/06/14 11:52:20;;;;;;;6.67;5.50;;;23.10;99.90;;;;;;5039702;28;20910;-86
2021/06/14 11:54:49;;;;;;;11.20;8.73;;;23.20;99.90;;;;;;5039637;28;20446;-85
2021/06/14 11:57:16;;;;;;;6.83;4.90;;;23.30;99.90;;;;;;5039538;28;20509;-86
2021/06/14 11:59:44;;;;;;;9.00;8.03;;;23.40;99.90;;;;;;5041851;28;20452;-85
2021/06/14 12:02:20;;;;;;;6.27;3.77;;;23.40;99.90;;;;;;5042553;28;20452;-86
2021/06/14 12:04:52;;;;;;;3.60;3.23;;;23.60;99.90;;;;;;5046170;28;20431;-85
2021/06/14 12:07:30;;;;;;;5.50;3.13;;;23.70;99.90;;;;;;5043796;28;20457;-85
2021/06/14 12:09:59;;;;;;;5.37;4.13;;;23.70;99.90;;;;;;5045726;28;20512;-86
2021/06/14 12:12:25;;;;;;;5.20;3.60;;;23.70;99.90;;;;;;5045468;28;20857;-86
2021/06/14 12:14:53;;;;;;;10.07;8.50;;;23.70;99.90;;;;;;5045897;28;20519;-86
2021/06/14 12:17:26;;;;;;;8.77;6.43;;;23.70;99.90;;;;;;5048356;28;20535;-85
2021/06/14 12:19:55;;;;;;;11.63;9.00;;;23.70;99.90;;;;;;5047120;28;20433;-86
2021/06/14 12:22:22;;;;;;;5.17;4.00;;;23.80;99.90;;;;;;5049241;28;20457;-85
2021/06/14 12:24:49;;;;;;;6.13;4.27;;;23.80;99.90;;;;;;5048286;28;20448;-85
2021/06/14 12:27:16;;;;;;;7.50;5.40;;;23.90;99.90;;;;;;5053965;28;20509;-86
2021/06/14 12:29:44;;;;;;;6.87;3.70;;;23.90;99.90;;;;;;5055467;28;20448;-85
2021/06/14 12:32:12;;;;;;;7.63;4.07;;;22.40;99.80;;;;;;5051893;28;20455;-86
2021/06/14 12:34:41;;;;;;;7.57;4.13;;;24.00;99.90;;;;;;5056095;28;20464;-85
2021/06/14 12:37:17;;;;;;;4.90;3.50;;;24.00;99.90;;;;;;5060049;28;20500;-85
2021/06/14 12:39:59;;;;;;;5.20;4.70;;;24.00;99.90;;;;;;5059344;28;20444;-86
2021/06/14 12:42:27;;;;;;;4.50;3.70;;;24.00;99.90;;;;;;5058297;28;20492;-86
2021/06/14 12:45:00;;;;;;;6.13;3.67;;;24.30;99.90;;;;;;5058395;28;20430;-86
2021/06/14 12:47:27;;;;;;;4.00;3.70;;;24.10;99.90;;;;;;5060624;28;20465;-84
2021/06/14 12:49:55;;;;;;;10.30;3.87;;;24.10;99.90;;;;;;5060462;28;20435;-85